createdAt,value
2019-05-15T00:00:13.535Z,4.37
2019-05-15T00:02:42.303Z,4.47
2019-05-15T00:05:11.535Z,4.03
2019-05-15T00:07:40.150Z,4.00
2019-05-15T00:10:09.115Z,3.90
2019-05-15T00:12:39.504Z,4.10
2019-05-15T00:15:09.531Z,4.10
2019-05-15T00:17:39.629Z,4.50
2019-05-15T00:20:09.946Z,4.67
2019-05-15T00:22:39.818Z,4.23
2019-05-15T00:25:09.337Z,4.63
2019-05-15T00:27:38.980Z,4.73
2019-05-15T00:30:08.657Z,4.83
2019-05-15T00:32:39.282Z,4.47
2019-05-15T00:35:09.390Z,4.60
2019-05-15T00:37:38.702Z,4.23
2019-05-15T00:40:08.873Z,4.35
2019-05-15T00:42:38.371Z,4.83
2019-05-15T00:45:09.429Z,4.53
2019-05-15T00:47:39.699Z,4.37
2019-05-15T00:50:08.923Z,4.70
2019-05-15T00:52:39.056Z,4.17
2019-05-15T00:55:09.293Z,4.20
2019-05-15T00:57:39.346Z,4.53
2019-05-15T01:00:08.247Z,4.53
2019-05-15T01:02:38.859Z,4.43
2019-05-15T01:05:08.125Z,4.80
2019-05-15T01:07:38.941Z,4.58
2019-05-15T01:10:09.555Z,4.13
2019-05-15T01:12:38.116Z,4.07
2019-05-15T01:15:08.993Z,4.43
2019-05-15T01:17:39.001Z,4.87
2019-05-15T01:20:08.504Z,4.63
2019-05-15T01:22:39.416Z,4.10
2019-05-15T01:25:08.638Z,4.10
2019-05-15T01:27:38.781Z,4.23
2019-05-15T01:30:09.188Z,4.83
2019-05-15T01:32:39.655Z,3.67
2019-05-15T01:35:09.622Z,4.25
2019-05-15T01:37:39.015Z,4.03
2019-05-15T01:40:08.822Z,5.03
2019-05-15T01:42:38.666Z,4.40
2019-05-15T01:45:08.948Z,4.17
2019-05-15T01:47:39.000Z,3.43
2019-05-15T01:50:09.240Z,3.65
2019-05-15T01:52:39.089Z,4.50
2019-05-15T01:55:09.154Z,4.53
2019-05-15T01:57:38.583Z,3.43
2019-05-15T02:00:08.719Z,3.15
2019-05-15T02:02:39.187Z,3.87
2019-05-15T02:05:08.584Z,4.50
2019-05-15T02:07:39.013Z,4.28
2019-05-15T02:10:09.555Z,3.47
2019-05-15T02:12:38.755Z,3.85
2019-05-15T02:15:08.572Z,4.22
2019-05-15T02:17:39.232Z,3.95
2019-05-15T02:20:08.444Z,4.33
2019-05-15T02:22:41.990Z,3.70
2019-05-15T02:25:08.517Z,4.00
2019-05-15T02:27:39.219Z,4.03
2019-05-15T02:30:17.987Z,3.70
2019-05-15T02:32:39.608Z,3.90
2019-05-15T02:35:10.034Z,2.83
2019-05-15T02:37:41.070Z,3.67
2019-05-15T02:40:10.124Z,3.93
2019-05-15T02:42:40.013Z,3.93
2019-05-15T02:45:10.309Z,3.50
2019-05-15T02:47:39.947Z,3.60
2019-05-15T02:50:10.820Z,3.35
2019-05-15T02:52:44.510Z,2.83
2019-05-15T02:55:09.735Z,3.93
2019-05-15T02:57:39.926Z,4.42
2019-05-15T03:00:10.732Z,3.85
2019-05-15T03:02:41.236Z,3.20
2019-05-15T03:05:09.717Z,4.27
2019-05-15T03:07:40.152Z,2.80
2019-05-15T03:10:09.535Z,4.47
2019-05-15T03:12:40.679Z,4.00
2019-05-15T03:15:09.839Z,3.75
2019-05-15T03:17:40.465Z,3.70
2019-05-15T03:20:10.591Z,3.33
2019-05-15T03:22:40.303Z,4.62
2019-05-15T03:25:10.760Z,3.70
2019-05-15T03:27:40.096Z,4.40
2019-05-15T03:30:13.647Z,4.20
2019-05-15T03:32:46.392Z,4.10
2019-05-15T03:35:14.191Z,3.30
2019-05-15T03:37:40.150Z,3.62
2019-05-15T03:40:10.251Z,3.67
2019-05-15T03:42:39.828Z,3.70
2019-05-15T03:45:10.060Z,4.20
2019-05-15T03:47:40.106Z,4.58
2019-05-15T03:50:09.509Z,4.40
2019-05-15T03:52:39.483Z,4.03
2019-05-15T03:55:10.736Z,3.93
2019-05-15T03:57:40.045Z,4.20
2019-05-15T04:00:09.797Z,4.17
2019-05-15T04:02:39.554Z,4.10
2019-05-15T04:05:11.955Z,4.20
2019-05-15T04:07:40.210Z,3.92
2019-05-15T04:10:10.123Z,3.67
2019-05-15T04:12:40.297Z,3.95
2019-05-15T04:15:10.105Z,4.20
2019-05-15T04:17:40.078Z,3.52
2019-05-15T04:20:10.202Z,4.42
2019-05-15T04:22:40.366Z,3.53
2019-05-15T04:25:10.878Z,3.43
2019-05-15T04:27:40.781Z,4.30
2019-05-15T04:30:10.614Z,4.87
2019-05-15T04:32:40.145Z,2.90
2019-05-15T04:35:09.549Z,3.90
2019-05-15T04:37:41.023Z,4.00
2019-05-15T04:40:10.150Z,4.53
2019-05-15T04:42:40.094Z,4.10
2019-05-15T04:45:10.376Z,3.67
2019-05-15T04:47:39.777Z,3.90
2019-05-15T04:50:10.177Z,2.90
2019-05-15T04:52:43.151Z,4.10
2019-05-15T04:55:10.456Z,4.13
2019-05-15T04:57:40.421Z,6.50
2019-05-15T05:00:09.979Z,4.33
2019-05-15T05:02:40.097Z,3.70
2019-05-15T05:05:10.474Z,4.23
2019-05-15T05:07:39.756Z,4.03
2019-05-15T05:10:09.986Z,4.20
2019-05-15T05:12:41.557Z,3.17
2019-05-15T05:15:09.054Z,3.67
2019-05-15T05:17:39.074Z,4.33
2019-05-15T05:20:08.390Z,3.40
2019-05-15T05:22:39.395Z,3.87
2019-05-15T05:25:08.070Z,3.93
2019-05-15T05:27:38.414Z,4.00
2019-05-15T05:30:08.400Z,3.73
2019-05-15T05:32:39.073Z,3.67
2019-05-15T05:35:08.470Z,4.10
2019-05-15T05:37:38.999Z,1.23
2019-05-15T05:40:08.045Z,2.60
2019-05-15T05:42:38.918Z,1.30
2019-05-15T05:45:09.211Z,1.30
2019-05-15T05:47:38.156Z,1.80
2019-05-15T05:50:08.197Z,1.60
2019-05-15T05:52:38.873Z,1.70
2019-05-15T05:55:08.813Z,1.80
2019-05-15T05:57:38.304Z,2.03
2019-05-15T06:00:09.277Z,1.80
2019-05-15T06:02:46.876Z,2.20
2019-05-15T06:05:08.467Z,2.73
2019-05-15T06:07:38.658Z,1.95
2019-05-15T06:10:08.858Z,2.50
2019-05-15T06:12:39.228Z,2.30
2019-05-15T06:15:08.950Z,2.75
2019-05-15T06:17:39.213Z,3.55
2019-05-15T06:20:08.464Z,3.00
2019-05-15T06:22:38.732Z,3.10
2019-05-15T06:25:11.413Z,3.22
2019-05-15T06:27:39.135Z,2.80
2019-05-15T06:30:08.810Z,2.75
2019-05-15T06:32:39.962Z,3.20
2019-05-15T06:35:09.068Z,2.80
2019-05-15T06:37:39.493Z,2.97
2019-05-15T06:40:08.444Z,3.70
2019-05-15T06:42:39.400Z,2.50
2019-05-15T06:45:08.192Z,2.90
2019-05-15T06:47:39.244Z,3.10
2019-05-15T06:50:08.553Z,3.20
2019-05-15T06:52:38.007Z,3.35
2019-05-15T06:55:09.176Z,2.93
2019-05-15T06:57:39.687Z,2.97
2019-05-15T07:00:08.501Z,2.50
2019-05-15T07:02:38.225Z,3.10
2019-05-15T07:05:07.879Z,3.45
2019-05-15T07:07:38.634Z,2.67
2019-05-15T07:10:08.957Z,2.55
2019-05-15T07:12:39.089Z,2.67
2019-05-15T07:15:09.413Z,2.90
2019-05-15T07:17:39.218Z,3.08
2019-05-15T07:20:08.759Z,3.17
2019-05-15T07:22:39.113Z,2.77
2019-05-15T07:25:08.894Z,3.00
2019-05-15T07:27:39.140Z,2.50
2019-05-15T07:30:11.642Z,2.50
2019-05-15T07:32:39.574Z,2.93
2019-05-15T07:35:08.758Z,2.85
2019-05-15T07:37:38.702Z,2.93
2019-05-15T07:40:08.442Z,3.10
2019-05-15T07:42:38.654Z,4.87
2019-05-15T07:45:08.277Z,4.00
2019-05-15T07:47:38.638Z,4.20
2019-05-15T07:50:09.276Z,4.28
2019-05-15T07:52:39.614Z,4.62
2019-05-15T07:55:10.225Z,4.83
2019-05-15T07:57:39.592Z,2.90
2019-05-15T08:00:09.493Z,3.50
2019-05-15T08:02:38.440Z,2.62
2019-05-15T08:05:08.387Z,2.00
2019-05-15T08:07:38.831Z,3.63
2019-05-15T08:10:08.942Z,3.30
2019-05-15T08:12:39.228Z,2.90
2019-05-15T08:15:08.992Z,2.90
2019-05-15T08:17:59.162Z,3.33
2019-05-15T08:20:09.205Z,3.10
2019-05-15T08:22:38.423Z,2.37
2019-05-15T08:25:11.517Z,1.50
2019-05-15T08:27:38.367Z,2.10
2019-05-15T08:30:08.916Z,1.15
2019-05-15T08:32:38.942Z,1.70
2019-05-15T08:35:08.129Z,1.93
2019-05-15T08:37:38.498Z,2.63
2019-05-15T08:40:08.558Z,2.33
2019-05-15T08:42:41.567Z,1.47
2019-05-15T08:45:09.174Z,2.10
2019-05-15T08:47:38.558Z,1.42
2019-05-15T08:50:08.864Z,1.98
2019-05-15T08:52:39.440Z,1.75
2019-05-15T08:55:08.592Z,2.30
2019-05-15T08:57:38.326Z,1.90
2019-05-15T09:00:09.669Z,2.30
2019-05-15T09:02:38.405Z,2.05
2019-05-15T09:05:08.618Z,0.93
2019-05-15T09:07:38.358Z,1.90
2019-05-15T09:10:09.027Z,1.67
2019-05-15T09:12:38.998Z,0.65
2019-05-15T09:15:08.118Z,1.90
2019-05-15T09:17:39.605Z,1.83
2019-05-15T09:20:08.132Z,1.95
2019-05-15T09:22:38.229Z,0.95
2019-05-15T09:25:08.997Z,2.37
2019-05-15T09:27:38.251Z,1.60
2019-05-15T09:30:08.711Z,2.20
2019-05-15T09:32:39.263Z,1.90
2019-05-15T09:35:08.584Z,1.00
2019-05-15T09:37:38.588Z,1.07
2019-05-15T09:40:08.895Z,1.22
2019-05-15T09:42:38.773Z,2.13
2019-05-15T09:45:08.963Z,1.30
2019-05-15T09:47:39.623Z,1.67
2019-05-15T09:50:08.699Z,1.77
2019-05-15T09:52:38.853Z,0.97
2019-05-15T09:55:08.772Z,2.08
2019-05-15T09:57:38.608Z,2.12
2019-05-15T10:00:09.003Z,1.63
2019-05-15T10:02:39.326Z,2.17
2019-05-15T10:05:11.194Z,2.67
2019-05-15T10:07:40.458Z,2.20
2019-05-15T10:10:09.466Z,1.60
2019-05-15T10:12:38.695Z,2.20
2019-05-15T10:15:11.139Z,2.30
2019-05-15T10:17:39.721Z,2.17
2019-05-15T10:20:09.145Z,2.58
2019-05-15T10:22:37.886Z,2.12
2019-05-15T10:25:08.360Z,1.30
2019-05-15T10:27:39.585Z,1.33
2019-05-15T10:30:09.151Z,2.30
2019-05-15T10:32:39.459Z,1.80
2019-05-15T10:35:24.580Z,1.95
2019-05-15T10:37:40.347Z,1.90
2019-05-15T10:40:09.343Z,1.97
2019-05-15T10:42:39.716Z,2.42
2019-05-15T10:45:08.952Z,2.08
2019-05-15T10:47:38.887Z,2.50
2019-05-15T10:50:09.500Z,1.90
2019-05-15T10:52:38.423Z,2.00
2019-05-15T10:55:09.194Z,1.63
2019-05-15T10:57:42.723Z,0.97
2019-05-15T11:00:08.054Z,2.00
2019-05-15T11:02:39.133Z,1.98
2019-05-15T11:05:09.385Z,2.70
2019-05-15T11:07:39.437Z,2.03
2019-05-15T11:10:09.070Z,1.67
2019-05-15T11:12:37.667Z,1.82
2019-05-15T11:15:10.997Z,1.20
2019-05-15T11:17:38.519Z,2.02
2019-05-15T11:20:08.324Z,0.95
2019-05-15T11:22:42.205Z,1.87
2019-05-15T11:25:09.938Z,2.03
2019-05-15T11:27:39.027Z,1.90
2019-05-15T11:30:09.157Z,1.93
2019-05-15T11:32:39.143Z,2.47
2019-05-15T11:35:08.269Z,1.43
2019-05-15T11:37:43.947Z,2.07
2019-05-15T11:40:10.176Z,1.87
2019-05-15T11:42:39.441Z,0.40
2019-05-15T11:45:08.578Z,1.17
2019-05-15T11:47:39.638Z,1.72
2019-05-15T11:50:08.393Z,2.10
2019-05-15T11:52:40.133Z,0.90
2019-05-15T11:55:08.381Z,2.23
2019-05-15T11:57:43.580Z,1.50
2019-05-15T12:00:14.591Z,1.15
2019-05-15T12:02:38.523Z,1.70
2019-05-15T12:05:09.315Z,1.45
2019-05-15T12:07:38.699Z,0.45
2019-05-15T12:10:10.536Z,1.17
2019-05-15T12:12:38.604Z,1.40
2019-05-15T12:15:07.966Z,1.57
2019-05-15T12:17:38.863Z,2.20
2019-05-15T12:20:09.821Z,1.43
2019-05-15T12:22:39.209Z,1.40
2019-05-15T12:25:09.812Z,1.65
2019-05-15T12:27:40.096Z,1.30
2019-05-15T12:30:10.258Z,0.83
2019-05-15T12:32:40.329Z,2.00
2019-05-15T12:35:10.386Z,1.90
2019-05-15T12:37:40.159Z,1.57
2019-05-15T13:00:12.429Z,1.47
2019-05-15T13:02:41.014Z,0.87
2019-05-15T13:05:09.628Z,1.65
2019-05-15T13:07:38.229Z,1.63
2019-05-15T13:10:08.656Z,1.60
2019-05-15T13:12:47.738Z,1.15
2019-05-15T13:15:08.541Z,1.25
2019-05-15T13:17:38.805Z,0.93
2019-05-15T13:20:07.374Z,0.28
2019-05-15T13:22:36.627Z,1.22
2019-05-15T13:25:08.446Z,1.37
2019-05-15T13:27:38.266Z,1.70
2019-05-15T13:30:09.037Z,1.17
2019-05-15T13:32:40.651Z,1.32
2019-05-15T13:35:09.812Z,1.12
2019-05-15T13:37:39.214Z,1.50
2019-05-15T13:40:08.002Z,1.25
2019-05-15T13:42:39.059Z,1.10
2019-05-15T13:45:12.175Z,1.55
2019-05-15T13:47:38.847Z,1.25
2019-05-15T13:50:08.312Z,1.07
2019-05-15T13:52:39.211Z,1.30
2019-05-15T13:55:08.508Z,1.50
2019-05-15T13:57:38.399Z,1.32
2019-05-15T14:00:09.013Z,0.50
2019-05-15T14:02:38.737Z,0.95
2019-05-15T14:05:09.289Z,1.47
2019-05-15T14:07:48.781Z,1.30
2019-05-15T14:10:09.733Z,1.50
2019-05-15T14:12:38.523Z,1.20
2019-05-15T14:15:08.993Z,1.40
2019-05-15T14:17:37.909Z,1.32
2019-05-15T14:20:09.065Z,1.37
2019-05-15T14:22:39.033Z,1.70
2019-05-15T14:25:08.831Z,0.80
2019-05-15T14:27:39.846Z,1.40
2019-05-15T14:30:09.050Z,1.57
2019-05-15T14:32:53.364Z,1.23
2019-05-15T14:35:09.053Z,0.50
2019-05-15T14:37:37.896Z,1.80
2019-05-15T14:40:08.699Z,0.73
2019-05-15T14:42:39.434Z,1.82
2019-05-15T14:45:08.779Z,1.50
2019-05-15T14:47:38.863Z,0.57
2019-05-15T14:50:10.138Z,1.67
2019-05-15T14:52:38.593Z,0.80
2019-05-15T14:55:08.685Z,1.43
2019-05-15T14:57:39.208Z,1.30
2019-05-15T15:00:09.064Z,1.73
2019-05-15T15:02:38.895Z,1.62
2019-05-15T15:05:08.925Z,1.52
2019-05-15T15:07:38.177Z,0.77
2019-05-15T15:10:07.826Z,0.30
2019-05-15T15:12:39.097Z,2.00
2019-05-15T15:15:10.095Z,1.40
2019-05-15T15:17:38.662Z,0.47
2019-05-15T15:20:07.605Z,1.35
2019-05-15T15:22:36.209Z,1.62
2019-05-15T15:25:05.659Z,0.70
2019-05-15T15:27:34.261Z,1.50
2019-05-15T15:30:02.947Z,1.85
2019-05-15T15:32:31.597Z,1.80
2019-05-15T15:35:00.193Z,1.80
2019-05-15T15:37:28.868Z,1.27
2019-05-15T15:39:58.817Z,1.95
2019-05-15T15:42:28.543Z,1.80
2019-05-15T15:44:58.132Z,1.90
2019-05-15T15:47:28.188Z,1.15
2019-05-15T15:49:58.512Z,1.95
2019-05-15T15:52:28.920Z,1.93
2019-05-15T15:54:57.465Z,1.53
2019-05-15T15:57:28.380Z,0.60
2019-05-15T15:59:56.238Z,1.90
2019-05-15T16:02:24.833Z,2.30
2019-05-15T16:04:53.428Z,1.50
2019-05-15T16:07:22.985Z,2.15
2019-05-15T16:09:51.776Z,1.93
2019-05-15T16:12:20.373Z,1.77
2019-05-15T16:14:48.986Z,2.20
2019-05-15T16:17:18.089Z,0.57
2019-05-15T16:19:49.165Z,1.70
2019-05-15T16:22:19.016Z,0.57
2019-05-15T16:24:49.191Z,0.62
2019-05-15T16:27:18.315Z,2.25
2019-05-15T16:29:47.881Z,2.12
2019-05-15T16:32:19.261Z,1.40
2019-05-15T16:34:47.947Z,1.53
2019-05-15T16:37:18.779Z,2.33
2019-05-15T16:39:48.804Z,1.25
2019-05-15T16:42:18.094Z,2.70
2019-05-15T16:44:49.039Z,2.03
2019-05-15T16:47:18.565Z,1.37
2019-05-15T16:49:48.552Z,2.02
2019-05-15T16:52:18.159Z,1.87
2019-05-15T16:54:49.021Z,0.90
2019-05-15T16:57:18.440Z,0.97
2019-05-15T16:59:48.013Z,1.55
2019-05-15T17:02:18.870Z,2.07
2019-05-15T17:04:48.822Z,2.10
2019-05-15T17:07:18.257Z,1.27
2019-05-15T17:09:48.095Z,2.03
2019-05-15T17:12:16.667Z,2.27
2019-05-15T17:14:45.382Z,1.60
2019-05-15T17:17:13.975Z,1.77
2019-05-15T17:19:42.559Z,1.03
2019-05-15T17:22:11.213Z,2.13
2019-05-15T17:24:39.786Z,0.43
2019-05-15T17:27:12.043Z,0.90
2019-05-15T17:29:38.824Z,1.77
2019-05-15T17:32:08.561Z,1.23
2019-05-15T17:34:37.993Z,1.60
2019-05-15T17:37:06.686Z,1.75
2019-05-15T17:39:40.866Z,0.20
2019-05-15T17:42:05.853Z,1.60
2019-05-15T17:44:34.448Z,1.50
2019-05-15T17:47:03.415Z,2.17
2019-05-15T17:49:32.009Z,1.00
2019-05-15T17:52:01.021Z,1.70
2019-05-15T17:54:29.621Z,1.20
2019-05-15T17:56:58.674Z,1.62
2019-05-15T17:59:28.640Z,1.67
2019-05-15T18:01:59.550Z,1.67
2019-05-15T18:04:28.248Z,1.40
2019-05-15T18:06:59.017Z,1.43
2019-05-15T18:09:28.008Z,1.17
2019-05-15T18:11:58.647Z,1.87
2019-05-15T18:14:26.878Z,1.20
2019-05-15T18:16:55.469Z,1.62
2019-05-15T18:19:24.054Z,1.40
2019-05-15T18:21:52.926Z,1.20
2019-05-15T18:24:21.520Z,1.90
2019-05-15T18:26:50.777Z,1.40
2019-05-15T18:29:19.454Z,0.33
2019-05-15T18:31:48.317Z,1.42
2019-05-15T18:34:18.870Z,1.37
2019-05-15T18:36:48.495Z,1.40
2019-05-15T18:39:17.217Z,1.60
2019-05-15T18:41:48.342Z,1.32
2019-05-15T18:44:16.181Z,1.17
2019-05-15T18:46:48.608Z,1.80
2019-05-15T18:49:17.976Z,1.40
2019-05-15T18:51:47.898Z,1.27
2019-05-15T18:54:18.941Z,1.80
2019-05-15T18:56:48.996Z,1.30
2019-05-15T18:59:17.830Z,1.55
2019-05-15T19:01:48.012Z,1.50
2019-05-15T19:04:18.329Z,1.40
2019-05-15T19:06:47.085Z,1.73
2019-05-15T19:09:18.705Z,1.52
2019-05-15T19:11:48.768Z,0.78
2019-05-15T19:14:19.091Z,1.75
2019-05-15T19:16:49.589Z,1.80
2019-05-15T19:19:18.612Z,1.53
2019-05-15T19:21:48.885Z,1.53
2019-05-15T19:24:18.521Z,1.40
2019-05-15T19:26:48.245Z,1.50
2019-05-15T19:29:17.972Z,1.90
2019-05-15T19:31:46.642Z,1.45
2019-05-15T19:34:18.799Z,1.47
2019-05-15T19:36:48.660Z,1.57
2019-05-15T19:39:18.577Z,1.60
2019-05-15T19:41:47.637Z,1.57
2019-05-15T19:44:17.977Z,1.72
2019-05-15T19:46:48.026Z,1.60
2019-05-15T19:49:17.922Z,1.75
2019-05-15T19:51:48.591Z,1.37
2019-05-15T19:54:18.367Z,1.97
2019-05-15T19:56:48.168Z,1.50
2019-05-15T19:59:22.512Z,1.80
2019-05-15T20:01:48.566Z,1.62
2019-05-15T20:04:18.573Z,2.50
2019-05-15T20:06:47.967Z,1.75
2019-05-15T20:09:18.317Z,1.60
2019-05-15T20:11:47.866Z,1.40
2019-05-15T20:14:18.327Z,1.53
2019-05-15T20:16:48.089Z,1.53
2019-05-15T20:19:18.165Z,1.50
2019-05-15T20:21:46.877Z,1.40
2019-05-15T20:24:18.059Z,1.60
2019-05-15T20:26:48.406Z,1.37
2019-05-15T20:29:18.190Z,1.75
2019-05-15T20:31:48.394Z,1.62
2019-05-15T20:34:17.109Z,1.60
2019-05-15T20:36:48.777Z,1.40
2019-05-15T20:39:17.021Z,1.40
2019-05-15T20:41:45.601Z,1.40
2019-05-15T20:44:14.277Z,1.70
2019-05-15T20:46:42.858Z,1.77
2019-05-15T20:49:11.445Z,1.67
2019-05-15T20:51:40.041Z,1.60
2019-05-15T20:54:09.396Z,1.62
2019-05-15T20:56:38.498Z,1.97
2019-05-15T20:59:08.933Z,1.90
2019-05-15T21:01:38.257Z,1.62
2019-05-15T21:04:19.317Z,1.77
2019-05-15T21:06:37.713Z,1.60
2019-05-15T21:09:08.416Z,1.37
2019-05-15T21:11:39.487Z,1.50
2019-05-15T21:14:08.696Z,2.30
2019-05-15T21:16:37.403Z,1.90
2019-05-15T21:19:07.960Z,2.00
2019-05-15T21:21:38.435Z,1.43
2019-05-15T21:24:06.493Z,1.40
2019-05-15T21:26:35.186Z,1.60
2019-05-15T21:29:03.784Z,1.70
2019-05-15T21:31:32.310Z,1.67
2019-05-15T21:34:01.293Z,1.50
2019-05-15T21:36:31.386Z,2.00
2019-05-15T21:39:00.141Z,1.47
2019-05-15T21:41:28.732Z,1.57
2019-05-15T21:43:59.256Z,1.75
2019-05-15T21:46:27.733Z,1.50
2019-05-15T21:48:57.699Z,1.82
2019-05-15T21:51:28.136Z,1.50
2019-05-15T21:53:58.231Z,1.67
2019-05-15T21:56:28.013Z,1.30
2019-05-15T21:58:58.122Z,1.80
2019-05-15T22:01:28.852Z,1.50
2019-05-15T22:03:58.892Z,1.67
2019-05-15T22:06:29.256Z,1.60
2019-05-15T22:09:01.001Z,1.72
2019-05-15T22:11:31.233Z,1.60
2019-05-15T22:13:59.932Z,2.10
2019-05-15T22:16:28.905Z,1.90
2019-05-15T22:18:59.261Z,1.90
2019-05-15T22:21:27.881Z,1.90
2019-05-15T22:23:59.892Z,1.92
2019-05-15T22:26:29.000Z,2.05
2019-05-15T22:28:58.437Z,2.53
2019-05-15T22:31:27.329Z,1.67
2019-05-15T22:33:55.903Z,1.73
2019-05-15T22:36:24.497Z,2.00
2019-05-15T22:38:53.025Z,1.80
2019-05-15T22:41:21.547Z,2.05
2019-05-15T22:43:50.207Z,2.00
2019-05-15T22:46:18.826Z,2.10
2019-05-15T22:48:48.641Z,1.80
2019-05-15T22:51:18.439Z,2.20
2019-05-15T22:53:48.816Z,1.77
2019-05-15T22:56:18.210Z,2.00
2019-05-15T22:58:48.037Z,1.82
2019-05-15T23:01:18.756Z,2.17
2019-05-15T23:03:47.899Z,1.90
2019-05-15T23:06:17.876Z,1.80
2019-05-15T23:08:48.693Z,2.00
2019-05-15T23:11:18.232Z,1.90
2019-05-15T23:13:48.420Z,2.37
2019-05-15T23:16:18.198Z,1.90
2019-05-15T23:18:48.498Z,1.80
2019-05-15T23:21:18.311Z,1.80
2019-05-15T23:23:48.817Z,2.00
2019-05-15T23:26:17.289Z,2.02
2019-05-15T23:28:47.951Z,1.75
2019-05-15T23:31:16.153Z,1.90
2019-05-15T23:33:45.314Z,1.80
2019-05-15T23:36:13.910Z,2.05
2019-05-15T23:38:43.009Z,1.80
2019-05-15T23:41:11.509Z,1.80
2019-05-15T23:43:40.057Z,2.40
2019-05-15T23:46:08.665Z,2.85
2019-05-15T23:48:38.189Z,2.20
2019-05-15T23:51:08.557Z,2.40
2019-05-15T23:53:38.135Z,2.30
2019-05-15T23:56:09.177Z,2.03
2019-05-15T23:58:38.067Z,2.33
